• Join FlightAware (Why Join?)
  • Login
  • US Flag 
09:13AM EDT


 

Airport Tracker/Info


-or-


 

Live Flight TrackerFlight Track Log ✈ UAL6118 ✈ 31-Dec-2013 ✈ KCLT - KIAD

Flight Track Log - Related Links

Times and Time Zones

All times are in EST time to prevent confusion due to time zone crossing. See the UAL6118 flight status page for this flight to view local times or setup timezone preferences in your user account.

Time Position Orientation Groundspeed Altitude Reporting Facility
EST Latitude Longitude Course Direction KTS MPH feet Rate Location/Type
02:56PM 35.2328 -80.9392 354° North 153 176 1,600  Level Atlanta Center
02:56PM 35.2472 -80.9411 354° North 158 182 2,200 1,800 Climbing Atlanta Center
02:57PM 35.3006 -80.9061 28° Northeast 248 285 4,000 2,280 Climbing Atlanta Center
02:58PM 35.3172 -80.8164 77° East 286 329 6,600 2,880 Climbing Atlanta Center
02:58PM 35.3211 -80.8086 58° Northeast 298 343 7,000 3,180 Climbing Atlanta Center
02:59PM 35.3356 -80.7214 79° East 286 329 9,800 2,100 Climbing Atlanta Center
03:00PM 35.3514 -80.6189 79° East 307 353 11,000 1,800 Climbing Atlanta Center
03:01PM 35.3728 -80.4933 78° East 344 396 13,400 2,280 Climbing Atlanta Center
03:02PM 35.3942 -80.3700 78° East 362 417 15,600 1,860 Climbing Atlanta Center
03:04PM 35.4353 -80.1372 78° East 382 440 18,900 1,620 Climbing Washington Center
03:05PM 35.4722 -79.9889 73° East 394 453 20,300 960 Climbing Washington Center
03:06PM 35.5089 -79.8406 73° East 427 491 20,900 540 Climbing Washington Center
03:07PM 35.5500 -79.6819 72° East 457 526 21,500 720 Climbing Washington Center
03:08PM 35.5903 -79.5331 72° East 489 563 22,400 1,020 Climbing Washington Center
03:09PM 35.6744 -79.3892 54° Northeast 485 558 23,600 1,080 Climbing Washington Center
03:10PM 35.7856 -79.2997 33° Northeast 463 533 24,600 1,020 Climbing Washington Center
03:11PM 35.8969 -79.2075 34° Northeast 463 533 25,700 1,020 Climbing Washington Center
03:12PM 36.0103 -79.1150 33° Northeast 475 547 26,700 660 Climbing Washington Center
03:13PM 36.1236 -79.0197 34° Northeast 481 554 27,000 120 Climbing Washington Center
03:14PM 36.2283 -78.9342 33° Northeast 492 566 27,000  Level Washington Center
03:15PM 36.3522 -78.8311 34° Northeast 511 588 27,000  Level Washington Center
03:16PM 36.4717 -78.7303 34° Northeast 523 602 27,000  Level Washington Center
03:17PM 36.5869 -78.6367 33° Northeast 510 587 27,000  Level Washington Center
03:18PM 36.7042 -78.5325 35° Northeast 483 556 27,000  Level Washington Center
03:19PM 36.8106 -78.4456 33° Northeast 470 541 27,000  Level Washington Center
03:20PM 36.9214 -78.3508 34° Northeast 470 541 27,000 -660 Level Washington Center
03:21PM 37.0297 -78.2586 34° Northeast 475 547 25,800 -1,620 Descending Washington Center
03:22PM 37.1214 -78.1783 35° Northeast 462 532 23,900 -1,860 Descending Washington Center
03:23PM 37.2275 -78.0881 34° Northeast 438 504 22,100 -960 Descending Washington Center
03:24PM 37.3272 -78.0025 34° Northeast 427 491 22,000 -60 Descending Washington Center
03:25PM 37.4269 -77.9167 34° Northeast 432 497 22,000  Level Washington Center
03:26PM 37.5244 -77.8333 34° Northeast 432 497 22,000  Level Washington Center
03:27PM 37.6281 -77.7683 26° Northeast 426 490 22,000 -660 Level Washington Center
03:28PM 37.7333 -77.7083 24° Northeast 414 476 20,700 -1,800 Descending Washington Center
03:29PM 37.8344 -77.6506 24° Northeast 407 468 18,500 -2,400 Descending Washington Center
03:30PM 37.9250 -77.5950 26° Northeast 383 441 15,900 -2,760 Descending Washington Center
03:31PM 38.0133 -77.5447 24° Northeast 359 413 13,100 -2,400 Descending Washington Center
03:32PM 38.0933 -77.5019 23° Northeast 335 386 11,200 -1,620 Descending Washington Center
03:33PM 38.1733 -77.4539 25° Northeast 321 369 9,900 -900 Descending Washington Center
03:34PM 38.2447 -77.4292 15° North 289 333 9,400 -660 Descending Washington Center
03:35PM 38.3092 -77.4439 350° North 251 289 8,700 -660 Descending Washington Center
03:36PM 38.3758 -77.4508 355° North 246 283 8,100 -660 Descending Washington Center
03:37PM 38.4467 -77.4500 North 246 283 7,400 -660 Descending Washington Center
03:38PM 38.5133 -77.4464 North 236 272 6,800 -660 Descending Washington Center
03:39PM 38.5803 -77.4453 North 236 272 6,200 -660 Descending Washington Center
03:40PM 38.6428 -77.4417 North 229 264 5,600 -1,020 Descending Washington Center
03:41PM 38.7333 -77.4333 North 206 237 3,800 -1,080 Descending Potomac TRACON
03:42PM 38.7833 -77.4333 360° North 171 197 3,100 -780 Descending Potomac TRACON
03:43PM 38.8333 -77.4333 360° North 183 211 2,300 -900 Descending Potomac TRACON
03:44PM 38.8667 -77.4333 360° North 142 163 1,400 -900 Descending Potomac TRACON
03:45PM 38.9167 -77.4333 360° North 135 155 600 -840 Descending Potomac TRACON
03:47PM 38.9474 -77.4599 North  Level Estimated
03:54PM 38.9474 -77.4599 195° South  Level Estimated
03:55PM 38.9474 -77.4599 195° South  Level Estimated